Honor, MI (49640)

2:20 AM EDT on August 02, 2015 (GMT -0400)
PlatteLakeLodge.com | | Change Station
CLOSE
Current Station
Personal Weather Station
Location: Beulah, MI
Elevation: 607 ft
Nearby Weather Stations

Elev 607 ft 44.68 °N, 86.07 °W | Updated 1 second ago

Clear
Clear
63.0 °F
Feels Like 63.0 °F
N
1.0
Wind Variable Wind from SSW
Gusts 2.0 mph

Today
High -- | Low -- °F
--% Chance of Precip.
Yesterday
High -- | Low -- °F
Precip. -- in
6:31 AM 9:08 PM
Waning Gibbous, 95% visible
Pressure 29.81 in
Visibility 10.0 miles
Clouds Clear
Dew Point 57 °F
Humidity 81%
Rainfall 0.00 in
Snow Depth Not available.
UV 0 out of 12
Pollen 7.20 out of 12
Air Quality Not available.
Flu Activity Not available.
METAR KFKS 020612Z AUTO 20004KT 10SM CLR 20/17 A2981 RMK AO2 T02040167

More Conditions Fewer Conditions

Pressure 29.81 in
Visibility 10.0 miles
Clouds Clear
Dew Point 57 °F
Humidity 81%
Rainfall 0.00 in
Snow Depth Not available.
UV 0 out of 12
Pollen 7.20 out of 12
Air Quality Not available.
Flu Activity Not available.
METAR KFKS 020612Z AUTO 20004KT 10SM CLR 20/17 A2981 RMK AO2 T02040167

More Conditions Fewer Conditions

Nowcast | as of 2:00 am EDT on August 2, 2015

At 5 am...partly cloudy. Chance of showers and isolated thunderstorms. Temperature 67. Southwest winds 8 mph. Chance of showers and isolated thunderstorms. Chance of thunderstorms.

×

10-Day Weather Forecast

×

Almanac

Astronomy

Aug. 02, 2015 Rise Set
Actual Time
Civil Twilight
Nautical Twilight
Astronomical Twilight
Moon
Length of Visible Light
Length of Day
Tomorrow will be .
, % of the Moon is Illuminated

Today's Extremes

State Highs State Lows

Community

WunderPhotos

Upload Photos

1,843,197 photos uploaded!

WunderBlogs® & News

Nearby

Air Quality

  Air Quality AQ Index Pollutant
Not available.

Snow Depth

Station Depth Elevation

Earthquake Activity

City Distance Mag. Time & Date
Minimum magnitude displayed is 2.5.

Coastal Water Temperatures

Place Temperature

Stations

Nearby Weather Stations

Station Location Temp. Windchill Dew Point Humidity Wind Precip. Elev Updated Type